F/V Men_gwen — FS2240 — position and weather

sailwx.info

Track history (hours):
 
Tides and Currents Weather Stations Pressure Air Temp Water Temp Dewpoint Dewpoint Depression Visibility Wind Speed Wind Dir Waves Ship Positions

F/V Men_gwen

Last reported at 2017-Nov-17 09:38 UTC. Time now 2017-Nov-17 17:47 UTC.
Position N 48°22' W 004°47'.

Length 12 m.

Type: Fishing. MMSI: 227114300.

Date/timePositionNaut miles runAvg speedWind from/ knotsBaromVisibWave heightAir tempDewpointWater temp
2017-Nov-17 09:38N 48°22' W 004°47'0 0.0
2017-Nov-17 09:25N 48°22' W 004°47'1 0.1
2017-Nov-16 13:48N 48°21' W 004°47'1 0.0
2017-Nov-15 14:29N 48°22' W 004°47'0 0.0
2017-Nov-15 14:00N 48°22' W 004°47'0 0.0
2017-Nov-15 12:01N 48°22' W 004°47'0 0.0
2017-Nov-15 12:00N 48°22' W 004°47'0 0.0
2017-Nov-15 11:30N 48°22' W 004°47'0 0.0
2017-Nov-15 11:00N 48°22' W 004°47'0 0.0
2017-Nov-15 10:30N 48°22' W 004°47'0 0.0
2017-Nov-15 10:00N 48°22' W 004°47'0 0.0
2017-Nov-15 09:30N 48°22' W 004°47'0 0.0
2017-Nov-15 09:00N 48°22' W 004°47'0 0.0
2017-Nov-15 08:30N 48°22' W 004°47'0 0.0
2017-Nov-14 12:12N 48°22' W 004°47'0 0.2
2017-Nov-14 12:00N 48°22' W 004°47'0 0.0
2017-Nov-14 11:09N 48°22' W 004°47'2 7.7
2017-Nov-14 10:55N 48°20' W 004°48'4 9.8
2017-Nov-14 10:30N 48°17' W 004°52'5 9.2
2017-Nov-14 10:00N 48°15' W 004°58'5 9.3
2017-Nov-14 09:28N 48°12' W 005°04'5 9.3
2017-Nov-14 08:56N 48°09' W 005°10'3 5.9
2017-Nov-14 08:24N 48°06' W 005°13'1 1.6
2017-Nov-14 07:56N 48°06' W 005°13'1 1.7
2017-Nov-14 07:28N 48°05' W 005°14'1 1.6
2017-Nov-14 06:57N 48°04' W 005°14'0 0.4
2017-Nov-14 06:30N 48°04' W 005°14'1 2.1
2017-Nov-14 05:54N 48°04' W 005°12'1 1.5
2017-Nov-14 05:30N 48°04' W 005°11'1 2.0
2017-Nov-14 05:00N 48°05' W 005°10'1 1.7
2017-Nov-14 04:30N 48°05' W 005°09'1 1.7
2017-Nov-14 04:00N 48°06' W 005°09'4 7.3
2017-Nov-14 03:30N 48°09' W 005°05'5 9.7
2017-Nov-14 03:00N 48°12' W 004°60'5 9.7
2017-Nov-14 02:31N 48°15' W 004°54'5 9.6
2017-Nov-14 02:01N 48°19' W 004°49'3 6.5
2017-Nov-14 01:30N 48°22' W 004°47'6 0.3
2017-Nov-13 02:01N 48°17' W 004°53'5 9.9
2017-Nov-13 01:31N 48°20' W 004°48'2 0.2
2017-Nov-12 15:47N 48°22' W 004°47'0 0.1
2017-Nov-12 15:26N 48°22' W 004°47'1 1.8
2017-Nov-12 15:00N 48°21' W 004°47'4 7.1
2017-Nov-12 14:30N 48°18' W 004°50'4 8.2
2017-Nov-12 14:00N 48°15' W 004°55'4 8.2
2017-Nov-12 13:30N 48°13' W 004°60'4 8.2
2017-Nov-12 13:00N 48°10' W 005°04'4 7.0
2017-Nov-12 12:30N 48°08' W 005°09'3 7.0
2017-Nov-12 12:00N 48°06' W 005°13'4 8.4
2017-Nov-12 11:28N 48°03' W 005°18'4 6.8
2017-Nov-12 10:55N 48°01' W 005°22'1 1.6
2017-Nov-12 10:22N 47°60' W 005°22'0 1.1
2017-Nov-12 10:00N 48°00' W 005°22'0 0.3
2017-Nov-12 09:14N 48°00' W 005°23'2 1.5
2017-Nov-12 08:11N 47°59' W 005°23'0 1.7
2017-Nov-12 07:58N 47°58' W 005°23'3 6.0
2017-Nov-12 07:29N 48°01' W 005°23'1 1.2
2017-Nov-12 06:46N 48°00' W 005°23'0 0.9
2017-Nov-12 06:29N 47°60' W 005°23'2 1.2
2017-Nov-12 05:08N 47°58' W 005°24'0 2.2
2017-Nov-12 05:00N 47°59' W 005°23'5 9.3
2017-Nov-12 04:30N 48°02' W 005°18'5 9.7
2017-Nov-12 04:00N 48°05' W 005°13'5 9.8
2017-Nov-12 03:31N 48°08' W 005°08'5 9.5
2017-Nov-12 03:00N 48°11' W 005°02'5 9.2
2017-Nov-12 02:30N 48°14' W 004°57'5 9.1
2017-Nov-12 02:00N 48°17' W 004°51'5 9.8
2017-Nov-12 01:30N 48°21' W 004°47'0 0.0
2017-Nov-11 08:15N 48°22' W 004°47'0 0.0
2017-Nov-11 08:00N 48°22' W 004°47'0 0.1
2017-Nov-11 07:30N 48°22' W 004°47'3 5.6
2017-Nov-11 07:00N 48°19' W 004°48'510.0
2017-Nov-11 06:30N 48°16' W 004°54'5 9.9
2017-Nov-11 05:59N 48°12' W 004°60'5 9.8
2017-Nov-11 05:29N 48°09' W 005°05'5 9.7
2017-Nov-11 05:00N 48°06' W 005°10'2 3.8
2017-Nov-11 04:29N 48°06' W 005°13'3 5.4
2017-Nov-11 04:00N 48°06' W 005°10'3 5.5
2017-Nov-11 03:29N 48°04' W 005°12'1 1.6
2017-Nov-11 03:00N 48°05' W 005°12'5 9.1
2017-Nov-11 02:30N 48°08' W 005°07'4 8.9
2017-Nov-11 02:00N 48°11' W 005°02'4 8.7
2017-Nov-11 01:30N 48°14' W 004°57'4 8.4
2017-Nov-11 01:01N 48°16' W 004°53'4 9.0
2017-Nov-11 00:30N 48°20' W 004°48'2 0.2
2017-Nov-10 14:47N 48°22' W 004°47'0 0.1
2017-Nov-10 14:30N 48°22' W 004°47'0 0.0
2017-Nov-10 13:59N 48°22' W 004°47'2 3.9
2017-Nov-10 13:30N 48°20' W 004°48'4 8.7
2017-Nov-10 13:00N 48°17' W 004°52'5 9.2
2017-Nov-10 12:30N 48°14' W 004°58'5 8.8
2017-Nov-10 11:57N 48°11' W 005°03'4 8.6
2017-Nov-10 11:30N 48°08' W 005°08'4 8.6
2017-Nov-10 10:59N 48°05' W 005°13'4 8.7
2017-Nov-10 10:30N 48°02' W 005°17'7 9.0
2017-Nov-10 09:46N 47°58' W 005°25'2 6.8
2017-Nov-10 09:24N 47°55' W 005°25'4 9.2
2017-Nov-10 08:58N 47°59' W 005°24'1 2.9
2017-Nov-10 08:28N 48°01' W 005°25'1 1.7
2017-Nov-10 07:59N 48°01' W 005°24'2 4.6
2017-Nov-10 07:30N 48°03' W 005°21'4 7.9
2017-Nov-10 07:01N 48°05' W 005°17'4 7.9
2017-Nov-10 06:30N 48°08' W 005°12'4 7.8
2017-Nov-10 06:00N 48°10' W 005°08'4 8.1
2017-Nov-10 05:31N 48°12' W 005°03'4 8.1
2017-Nov-10 05:00N 48°15' W 004°58'4 8.3
2017-Nov-10 04:31N 48°17' W 004°53'4 7.7
2017-Nov-10 04:01N 48°20' W 004°48'2 0.2
2017-Nov-09 14:59N 48°22' W 004°47'0 0.0
2017-Nov-09 12:47N 48°22' W 004°47'0 0.0
2017-Nov-09 12:30N 48°22' W 004°47'3 5.7
2017-Nov-09 12:01N 48°19' W 004°48'5 9.1
2017-Nov-09 11:30N 48°16' W 004°54'5 9.0
2017-Nov-09 11:00N 48°13' W 004°59'5 8.7
2017-Nov-09 10:24N 48°10' W 005°05'4 8.8
2017-Nov-09 10:00N 48°08' W 005°09'4 8.5
2017-Nov-09 09:30N 48°05' W 005°14'9 7.9
2017-Nov-09 08:21N 47°58' W 005°23'1 1.1
2017-Nov-09 07:35N 47°59' W 005°24'1 8.9
2017-Nov-09 07:29N 47°60' W 005°23'1 2.7
2017-Nov-09 07:00N 47°60' W 005°25'3 5.8
2017-Nov-09 06:29N 48°02' W 005°22'3 5.6
2017-Nov-09 06:01N 48°03' W 005°19'4 6.8
2017-Nov-09 05:28N 48°05' W 005°14'4 7.6
2017-Nov-09 05:00N 48°07' W 005°10'4 7.5
2017-Nov-09 04:31N 48°10' W 005°06'4 8.0
2017-Nov-09 04:00N 48°12' W 005°01'4 8.2
2017-Nov-09 03:30N 48°15' W 004°56'4 8.4
2017-Nov-09 03:01N 48°17' W 004°51'4 7.4
2017-Nov-09 02:30N 48°20' W 004°48'2 3.0
2017-Nov-09 02:00N 48°22' W 004°47'  
Track history (hours):
 
Tides and Currents Weather Stations Pressure Air Temp Water Temp Dewpoint Dewpoint Depression Visibility Wind Speed Wind Dir Waves Ship Positions

F/V Men_gwen

Last reported at 2017-Nov-17 09:38 UTC. Time now 2017-Nov-17 17:47 UTC.
Position N 48°22' W 004°47'.

Length 12 m.

Type: Fishing. MMSI: 227114300.

Date/timePositionNaut miles runAvg speedWind from/ knotsBaromVisibWave heightAir tempDewpointWater temp
2017-Nov-17 09:38N 48°22' W 004°47'0 0.0
2017-Nov-17 09:25N 48°22' W 004°47'1 0.1
2017-Nov-16 13:48N 48°21' W 004°47'1 0.0
2017-Nov-15 14:29N 48°22' W 004°47'0 0.0
2017-Nov-15 14:00N 48°22' W 004°47'0 0.0
2017-Nov-15 12:01N 48°22' W 004°47'0 0.0
2017-Nov-15 12:00N 48°22' W 004°47'0 0.0
2017-Nov-15 11:30N 48°22' W 004°47'0 0.0
2017-Nov-15 11:00N 48°22' W 004°47'0 0.0
2017-Nov-15 10:30N 48°22' W 004°47'0 0.0
2017-Nov-15 10:00N 48°22' W 004°47'0 0.0
2017-Nov-15 09:30N 48°22' W 004°47'0 0.0
2017-Nov-15 09:00N 48°22' W 004°47'0 0.0
2017-Nov-15 08:30N 48°22' W 004°47'0 0.0
2017-Nov-14 12:12N 48°22' W 004°47'0 0.2
2017-Nov-14 12:00N 48°22' W 004°47'0 0.0
2017-Nov-14 11:09N 48°22' W 004°47'2 7.7
2017-Nov-14 10:55N 48°20' W 004°48'4 9.8
2017-Nov-14 10:30N 48°17' W 004°52'5 9.2
2017-Nov-14 10:00N 48°15' W 004°58'5 9.3
2017-Nov-14 09:28N 48°12' W 005°04'5 9.3
2017-Nov-14 08:56N 48°09' W 005°10'3 5.9
2017-Nov-14 08:24N 48°06' W 005°13'1 1.6
2017-Nov-14 07:56N 48°06' W 005°13'1 1.7
2017-Nov-14 07:28N 48°05' W 005°14'1 1.6
2017-Nov-14 06:57N 48°04' W 005°14'0 0.4
2017-Nov-14 06:30N 48°04' W 005°14'1 2.1
2017-Nov-14 05:54N 48°04' W 005°12'1 1.5
2017-Nov-14 05:30N 48°04' W 005°11'1 2.0
2017-Nov-14 05:00N 48°05' W 005°10'1 1.7
2017-Nov-14 04:30N 48°05' W 005°09'1 1.7
2017-Nov-14 04:00N 48°06' W 005°09'4 7.3
2017-Nov-14 03:30N 48°09' W 005°05'5 9.7
2017-Nov-14 03:00N 48°12' W 004°60'5 9.7
2017-Nov-14 02:31N 48°15' W 004°54'5 9.6
2017-Nov-14 02:01N 48°19' W 004°49'3 6.5
2017-Nov-14 01:30N 48°22' W 004°47'6 0.3
2017-Nov-13 02:01N 48°17' W 004°53'5 9.9
2017-Nov-13 01:31N 48°20' W 004°48'2 0.2
2017-Nov-12 15:47N 48°22' W 004°47'0 0.1
2017-Nov-12 15:26N 48°22' W 004°47'1 1.8
2017-Nov-12 15:00N 48°21' W 004°47'4 7.1
2017-Nov-12 14:30N 48°18' W 004°50'4 8.2
2017-Nov-12 14:00N 48°15' W 004°55'4 8.2
2017-Nov-12 13:30N 48°13' W 004°60'4 8.2
2017-Nov-12 13:00N 48°10' W 005°04'4 7.0
2017-Nov-12 12:30N 48°08' W 005°09'3 7.0
2017-Nov-12 12:00N 48°06' W 005°13'4 8.4
2017-Nov-12 11:28N 48°03' W 005°18'4 6.8
2017-Nov-12 10:55N 48°01' W 005°22'1 1.6
2017-Nov-12 10:22N 47°60' W 005°22'0 1.1
2017-Nov-12 10:00N 48°00' W 005°22'0 0.3
2017-Nov-12 09:14N 48°00' W 005°23'2 1.5
2017-Nov-12 08:11N 47°59' W 005°23'0 1.7
2017-Nov-12 07:58N 47°58' W 005°23'3 6.0
2017-Nov-12 07:29N 48°01' W 005°23'1 1.2
2017-Nov-12 06:46N 48°00' W 005°23'0 0.9
2017-Nov-12 06:29N 47°60' W 005°23'2 1.2
2017-Nov-12 05:08N 47°58' W 005°24'0 2.2
2017-Nov-12 05:00N 47°59' W 005°23'5 9.3
2017-Nov-12 04:30N 48°02' W 005°18'5 9.7
2017-Nov-12 04:00N 48°05' W 005°13'5 9.8
2017-Nov-12 03:31N 48°08' W 005°08'5 9.5
2017-Nov-12 03:00N 48°11' W 005°02'5 9.2
2017-Nov-12 02:30N 48°14' W 004°57'5 9.1
2017-Nov-12 02:00N 48°17' W 004°51'5 9.8
2017-Nov-12 01:30N 48°21' W 004°47'0 0.0
2017-Nov-11 08:15N 48°22' W 004°47'0 0.0
2017-Nov-11 08:00N 48°22' W 004°47'0 0.1
2017-Nov-11 07:30N 48°22' W 004°47'3 5.6
2017-Nov-11 07:00N 48°19' W 004°48'510.0
2017-Nov-11 06:30N 48°16' W 004°54'5 9.9
2017-Nov-11 05:59N 48°12' W 004°60'5 9.8
2017-Nov-11 05:29N 48°09' W 005°05'5 9.7
2017-Nov-11 05:00N 48°06' W 005°10'2 3.8
2017-Nov-11 04:29N 48°06' W 005°13'3 5.4
2017-Nov-11 04:00N 48°06' W 005°10'3 5.5
2017-Nov-11 03:29N 48°04' W 005°12'1 1.6
2017-Nov-11 03:00N 48°05' W 005°12'5 9.1
2017-Nov-11 02:30N 48°08' W 005°07'4 8.9
2017-Nov-11 02:00N 48°11' W 005°02'4 8.7
2017-Nov-11 01:30N 48°14' W 004°57'4 8.4
2017-Nov-11 01:01N 48°16' W 004°53'4 9.0
2017-Nov-11 00:30N 48°20' W 004°48'2 0.2
2017-Nov-10 14:47N 48°22' W 004°47'0 0.1
2017-Nov-10 14:30N 48°22' W 004°47'0 0.0
2017-Nov-10 13:59N 48°22' W 004°47'2 3.9
2017-Nov-10 13:30N 48°20' W 004°48'4 8.7
2017-Nov-10 13:00N 48°17' W 004°52'5 9.2
2017-Nov-10 12:30N 48°14' W 004°58'5 8.8
2017-Nov-10 11:57N 48°11' W 005°03'4 8.6
2017-Nov-10 11:30N 48°08' W 005°08'4 8.6
2017-Nov-10 10:59N 48°05' W 005°13'4 8.7
2017-Nov-10 10:30N 48°02' W 005°17'7 9.0
2017-Nov-10 09:46N 47°58' W 005°25'2 6.8
2017-Nov-10 09:24N 47°55' W 005°25'4 9.2
2017-Nov-10 08:58N 47°59' W 005°24'1 2.9
2017-Nov-10 08:28N 48°01' W 005°25'1 1.7
2017-Nov-10 07:59N 48°01' W 005°24'2 4.6
2017-Nov-10 07:30N 48°03' W 005°21'4 7.9
2017-Nov-10 07:01N 48°05' W 005°17'4 7.9
2017-Nov-10 06:30N 48°08' W 005°12'4 7.8
2017-Nov-10 06:00N 48°10' W 005°08'4 8.1
2017-Nov-10 05:31N 48°12' W 005°03'4 8.1
2017-Nov-10 05:00N 48°15' W 004°58'4 8.3
2017-Nov-10 04:31N 48°17' W 004°53'4 7.7
2017-Nov-10 04:01N 48°20' W 004°48'2 0.2
2017-Nov-09 14:59N 48°22' W 004°47'0 0.0
2017-Nov-09 12:47N 48°22' W 004°47'0 0.0
2017-Nov-09 12:30N 48°22' W 004°47'3 5.7
2017-Nov-09 12:01N 48°19' W 004°48'5 9.1
2017-Nov-09 11:30N 48°16' W 004°54'5 9.0
2017-Nov-09 11:00N 48°13' W 004°59'5 8.7
2017-Nov-09 10:24N 48°10' W 005°05'4 8.8
2017-Nov-09 10:00N 48°08' W 005°09'4 8.5
2017-Nov-09 09:30N 48°05' W 005°14'9 7.9
2017-Nov-09 08:21N 47°58' W 005°23'1 1.1
2017-Nov-09 07:35N 47°59' W 005°24'1 8.9
2017-Nov-09 07:29N 47°60' W 005°23'1 2.7
2017-Nov-09 07:00N 47°60' W 005°25'3 5.8
2017-Nov-09 06:29N 48°02' W 005°22'3 5.6
2017-Nov-09 06:01N 48°03' W 005°19'4 6.8
2017-Nov-09 05:28N 48°05' W 005°14'4 7.6
2017-Nov-09 05:00N 48°07' W 005°10'4 7.5
2017-Nov-09 04:31N 48°10' W 005°06'4 8.0
2017-Nov-09 04:00N 48°12' W 005°01'4 8.2
2017-Nov-09 03:30N 48°15' W 004°56'4 8.4
2017-Nov-09 03:01N 48°17' W 004°51'4 7.4
2017-Nov-09 02:30N 48°20' W 004°48'2 3.0
2017-Nov-09 02:00N 48°22' W 004°47'  

Dump ship's entire track history